Time;durP1;ratioP1;P1;durP2;ratioP2;P2;SDS_P1;SDS_P2;PMS_P1;PMS_P2;Temp;Humidity;BMP_temperature;BMP_pressure;BME280_temperature;BME280_humidity;BME280_pressure;Samples;Min_cycle;Max_cycle;Signal;HPM_P1;HPM_P2
2021/09/03 00:02:06;;;;;;;;;;;;;;;;;;5034685;28;19936;-79
2021/09/03 00:04:50;;;;;;;;;;;;;;;;;;5038005;28;20301;-80
2021/09/03 00:07:34;;;;;;;;;;;;;;;;;;5033313;28;19920;-79
2021/09/03 00:10:19;;;;;;;;;;;;;;;;;;5038666;28;19924;-79
2021/09/03 00:13:03;;;;;;;;;;;;;;;;;;5036432;28;20451;-79
2021/09/03 00:15:48;;;;;;;;;;;;;;;;;;5031990;28;19944;-79
2021/09/03 00:18:32;;;;;;;;;;;;;;;;;;5038498;28;19928;-80
2021/09/03 00:21:17;;;;;;;;;;;;;;;;;;5031726;28;19932;-79
2021/09/03 00:24:01;;;;;;;;;;;;;;;;;;5033150;28;19924;-79
2021/09/03 00:26:45;;;;;;;;;;;;;;;;;;5040584;28;19920;-79
2021/09/03 00:29:29;;;;;;;;;;;;;;;;;;5035181;28;19920;-79
2021/09/03 00:32:13;;;;;;;;;;;;;;;;;;5030020;28;19921;-79
2021/09/03 00:35:19;;;;;;;;;;;;;;;;;;5041616;28;19924;-79
2021/09/03 00:38:09;;;;;;;;;;;;;;;;;;5038126;28;19920;-78
2021/09/03 00:40:53;;;;;;;;;;;;;;;;;;5033216;28;19960;-79
2021/09/03 00:43:38;;;;;;;;;;;;;;;;;;5042776;28;19924;-79
2021/09/03 00:46:22;;;;;;;;;;;;;;;;;;5039235;28;19936;-79
2021/09/03 00:49:07;;;;;;;;;;;;;;;;;;5039292;28;19920;-79
2021/09/03 00:51:51;;;;;;;;;;;;;;;;;;5042775;28;19985;-79
2021/09/03 00:54:35;;;;;;;;;;;;;;;;;;5041844;28;19928;-79
2021/09/03 00:57:19;;;;;;;;;;;;;;;;;;5040682;28;19921;-79
2021/09/03 01:00:03;;;;;;;;;;;;;;;;;;5037632;28;19944;-79
2021/09/03 01:02:48;;;;;;;;;;;;;;;;;;5035405;28;19924;-79
2021/09/03 01:05:32;;;;;;;;;;;;;;;;;;5038728;28;19920;-79
2021/09/03 01:08:16;;;;;;;;;;;;;;;;;;5035003;28;19924;-79
2021/09/03 01:11:00;;;;;;;;;;;;;;;;;;5037623;28;19921;-78
2021/09/03 01:13:45;;;;;;;;;;;;;;;;;;5039005;28;19946;-79
2021/09/03 01:16:29;;;;;;;;;;;;;;;;;;5041475;28;19920;-79
2021/09/03 01:19:13;;;;;;;;;;;;;;;;;;5038611;28;19975;-79
2021/09/03 01:21:57;;;;;;;;;;;;;;;;;;5037870;28;20329;-79
2021/09/03 01:24:42;;;;;;;;;;;;;;;;;;5042979;28;20388;-79
2021/09/03 01:27:26;;;;;;;;;;;;;;;;;;5041495;28;19920;-79
2021/09/03 01:30:10;;;;;;;;;;;;;;;;;;5033655;28;19920;-78
2021/09/03 01:32:54;;;;;;;;;;;;;;;;;;5037314;28;19920;-79
2021/09/03 01:35:38;;;;;;;;;;;;;;;;;;5040882;28;19920;-79
2021/09/03 01:38:23;;;;;;;;;;;;;;;;;;5039662;28;19921;-79
2021/09/03 01:41:07;;;;;;;;;;;;;;;;;;5033053;28;20436;-79
2021/09/03 01:43:52;;;;;;;;;;;;;;;;;;5041082;28;19920;-79
2021/09/03 01:46:36;;;;;;;;;;;;;;;;;;5042835;28;19948;-79
2021/09/03 01:49:20;;;;;;;;;;;;;;;;;;5037071;28;19924;-78
2021/09/03 01:52:04;;;;;;;;;;;;;;;;;;5041720;28;20309;-79
2021/09/03 01:54:48;;;;;;;;;;;;;;;;;;5040280;28;19924;-79
2021/09/03 01:57:33;;;;;;;;;;;;;;;;;;5036986;28;19924;-79
2021/09/03 02:00:17;;;;;;;;;;;;;;;;;;5040227;28;20420;-79
2021/09/03 02:03:02;;;;;;;;;;;;;;;;;;5038170;28;19920;-79
2021/09/03 02:05:47;;;;;;;;;;;;;;;;;;5035256;28;19924;-79
2021/09/03 02:08:32;;;;;;;;;;;;;;;;;;5040060;28;19924;-79
2021/09/03 02:11:16;;;;;;;;;;;;;;;;;;5036268;28;19920;-78
2021/09/03 02:14:00;;;;;;;;;;;;;;;;;;5032324;28;19921;-79
2021/09/03 02:16:44;;;;;;;;;;;;;;;;;;5037582;28;19920;-79
2021/09/03 02:19:29;;;;;;;;;;;;;;;;;;5038224;28;19928;-79
2021/09/03 02:22:13;;;;;;;;;;;;;;;;;;5034461;28;19920;-79
2021/09/03 02:24:57;;;;;;;;;;;;;;;;;;5038128;28;19985;-79
2021/09/03 02:27:41;;;;;;;;;;;;;;;;;;5039466;28;19921;-79
2021/09/03 02:30:25;;;;;;;;;;;;;;;;;;5034598;28;19924;-79
2021/09/03 02:33:09;;;;;;;;;;;;;;;;;;5039439;28;20325;-79
2021/09/03 02:35:54;;;;;;;;;;;;;;;;;;5033468;28;19920;-79
2021/09/03 02:38:38;;;;;;;;;;;;;;;;;;5038206;28;19924;-79
2021/09/03 02:41:22;;;;;;;;;;;;;;;;;;5038563;28;19940;-79
2021/09/03 02:44:06;;;;;;;;;;;;;;;;;;5037991;28;19920;-78
2021/09/03 02:46:51;;;;;;;;;;;;;;;;;;5037424;28;19920;-80
2021/09/03 02:49:35;;;;;;;;;;;;;;;;;;5038322;28;19924;-80
2021/09/03 02:52:19;;;;;;;;;;;;;;;;;;5039812;28;20420;-79
2021/09/03 02:55:04;;;;;;;;;;;;;;;;;;5036051;28;19920;-78
2021/09/03 02:57:48;;;;;;;;;;;;;;;;;;5032402;28;19924;-79
2021/09/03 03:00:34;;;;;;;;;;;;;;;;;;5036940;28;19925;-79
2021/09/03 03:03:18;;;;;;;;;;;;;;;;;;5038275;28;19924;-79
2021/09/03 03:06:02;;;;;;;;;;;;;;;;;;5037844;28;20388;-79
2021/09/03 03:08:46;;;;;;;;;;;;;;;;;;5038318;28;19924;-79
2021/09/03 03:11:31;;;;;;;;;;;;;;;;;;5036048;28;19924;-78
2021/09/03 03:14:26;;;;;;;;;;;;;;;;;;5040561;28;19920;-79
2021/09/03 03:17:10;;;;;;;;;;;;;;;;;;5033179;28;19920;-79
2021/09/03 03:19:55;;;;;;;;;;;;;;;;;;5027016;28;19924;-79
2021/09/03 03:22:39;;;;;;;;;;;;;;;;;;5041312;28;19920;-79
2021/09/03 03:25:23;;;;;;;;;;;;;;;;;;5037544;28;20007;-79
2021/09/03 03:28:07;;;;;;;;;;;;;;;;;;5036127;28;19940;-79
2021/09/03 03:30:51;;;;;;;;;;;;;;;;;;5032983;28;19928;-78
2021/09/03 03:33:35;;;;;;;;;;;;;;;;;;5036702;28;20313;-79
2021/09/03 03:36:20;;;;;;;;;;;;;;;;;;5035128;28;20404;-78
2021/09/03 03:39:04;;;;;;;;;;;;;;;;;;5034580;28;19921;-78
2021/09/03 03:41:48;;;;;;;;;;;;;;;;;;5034839;28;20404;-79
2021/09/03 03:44:32;;;;;;;;;;;;;;;;;;5035683;28;19920;-79
2021/09/03 03:47:16;;;;;;;;;;;;;;;;;;5031299;28;19920;-79
2021/09/03 03:50:01;;;;;;;;;;;;;;;;;;5029525;28;19936;-78
2021/09/03 03:52:45;;;;;;;;;;;;;;;;;;5036027;28;19928;-79
2021/09/03 03:55:29;;;;;;;;;;;;;;;;;;5034369;28;19920;-79
2021/09/03 03:58:13;;;;;;;;;;;;;;;;;;5038288;28;20416;-78
2021/09/03 04:00:58;;;;;;;;;;;;;;;;;;5039533;28;19928;-78
2021/09/03 04:03:42;;;;;;;;;;;;;;;;;;5030956;28;19929;-79
2021/09/03 04:06:26;;;;;;;;;;;;;;;;;;5038241;28;19920;-79
2021/09/03 04:09:10;;;;;;;;;;;;;;;;;;5037638;28;19925;-79
2021/09/03 04:11:55;;;;;;;;;;;;;;;;;;5035285;28;19920;-79
2021/09/03 04:14:40;;;;;;;;;;;;;;;;;;5041097;28;19920;-78
2021/09/03 04:17:24;;;;;;;;;;;;;;;;;;5037644;28;19920;-77
2021/09/03 04:20:09;;;;;;;;;;;;;;;;;;5031271;28;19948;-77
2021/09/03 04:22:53;;;;;;;;;;;;;;;;;;5037533;28;19920;-77
2021/09/03 04:25:38;;;;;;;;;;;;;;;;;;5040470;28;19928;-78
2021/09/03 04:28:22;;;;;;;;;;;;;;;;;;5033222;28;19921;-78
2021/09/03 04:31:06;;;;;;;;;;;;;;;;;;5038141;28;19920;-78
2021/09/03 04:33:51;;;;;;;;;;;;;;;;;;5040507;28;19936;-78
2021/09/03 04:36:35;;;;;;;;;;;;;;;;;;5032230;28;19920;-78
2021/09/03 04:39:19;;;;;;;;;;;;;;;;;;5034500;28;19920;-78
2021/09/03 04:42:03;;;;;;;;;;;;;;;;;;5036571;28;19928;-77
2021/09/03 04:44:47;;;;;;;;;;;;;;;;;;5036371;28;20404;-77
2021/09/03 04:47:32;;;;;;;;;;;;;;;;;;5040072;28;19920;-78
2021/09/03 04:50:16;;;;;;;;;;;;;;;;;;5041559;28;19936;-81
2021/09/03 04:53:01;;;;;;;;;;;;;;;;;;5039650;28;19929;-80
2021/09/03 04:55:45;;;;;;;;;;;;;;;;;;5045106;28;19924;-80
2021/09/03 04:58:29;;;;;;;;;;;;;;;;;;5044009;28;19936;-81
2021/09/03 05:01:14;;;;;;;;;;;;;;;;;;5041779;28;19925;-81
2021/09/03 05:03:58;;;;;;;;;;;;;;;;;;5048727;28;20308;-82
2021/09/03 05:06:42;;;;;;;;;;;;;;;;;;5045193;28;19953;-81
2021/09/03 05:09:26;;;;;;;;;;;;;;;;;;5042094;28;19924;-81
2021/09/03 05:12:11;;;;;;;;;;;;;;;;;;5044770;28;19924;-80
2021/09/03 05:14:55;;;;;;;;;;;;;;;;;;5049844;28;19921;-81
2021/09/03 05:17:39;;;;;;;;;;;;;;;;;;5041365;28;19936;-80
2021/09/03 05:20:23;;;;;;;;;;;;;;;;;;5037008;28;19924;-79
2021/09/03 05:23:08;;;;;;;;;;;;;;;;;;5040385;28;19929;-79
2021/09/03 05:25:52;;;;;;;;;;;;;;;;;;5040794;28;19921;-80
2021/09/03 05:28:37;;;;;;;;;;;;;;;;;;5039506;28;19932;-80
2021/09/03 05:31:21;;;;;;;;;;;;;;;;;;5046324;28;19928;-80
2021/09/03 05:34:05;;;;;;;;;;;;;;;;;;5049123;28;19920;-78
2021/09/03 05:36:50;;;;;;;;;;;;;;;;;;5041814;28;19920;-78
2021/09/03 05:39:34;;;;;;;;;;;;;;;;;;5036808;28;19924;-79
2021/09/03 05:42:18;;;;;;;;;;;;;;;;;;5047500;28;19921;-80
2021/09/03 05:45:02;;;;;;;;;;;;;;;;;;5042848;28;19920;-80
2021/09/03 05:47:47;;;;;;;;;;;;;;;;;;5040930;28;19920;-80
2021/09/03 05:50:31;;;;;;;;;;;;;;;;;;5043243;28;19935;-79
2021/09/03 05:53:15;;;;;;;;;;;;;;;;;;5043447;28;19928;-81
2021/09/03 05:56:00;;;;;;;;;;;;;;;;;;5042414;28;19920;-81
2021/09/03 05:58:44;;;;;;;;;;;;;;;;;;5046758;28;19922;-81
2021/09/03 06:01:28;;;;;;;;;;;;;;;;;;5045337;28;20448;-81
2021/09/03 06:04:13;;;;;;;;;;;;;;;;;;5029657;28;19920;-80
2021/09/03 06:06:57;;;;;;;;;;;;;;;;;;5043602;28;19920;-80
2021/09/03 06:09:41;;;;;;;;;;;;;;;;;;5043228;28;19924;-83
2021/09/03 06:12:25;;;;;;;;;;;;;;;;;;5044847;28;20396;-84
2021/09/03 06:15:09;;;;;;;;;;;;;;;;;;5048649;28;20297;-83
2021/09/03 06:17:54;;;;;;;;;;;;;;;;;;5043008;28;19920;-83
2021/09/03 06:20:38;;;;;;;;;;;;;;;;;;5043603;28;19924;-84
2021/09/03 06:23:22;;;;;;;;;;;;;;;;;;5047476;28;19928;-83
2021/09/03 06:26:06;;;;;;;;;;;;;;;;;;5045236;28;19921;-83
2021/09/03 06:28:51;;;;;;;;;;;;;;;;;;5043937;28;19920;-83
2021/09/03 06:31:35;;;;;;;;;;;;;;;;;;5039017;28;19920;-84
2021/09/03 06:34:19;;;;;;;;;;;;;;;;;;5046331;28;19924;-83
2021/09/03 06:37:04;;;;;;;;;;;;;;;;;;5042279;28;20317;-84
2021/09/03 06:39:48;;;;;;;;;;;;;;;;;;5037889;28;19932;-83
2021/09/03 06:42:33;;;;;;;;;;;;;;;;;;5041516;28;20316;-84
2021/09/03 06:45:17;;;;;;;;;;;;;;;;;;5039623;28;19920;-84
2021/09/03 06:48:01;;;;;;;;;;;;;;;;;;5039110;28;19921;-84
2021/09/03 06:50:46;;;;;;;;;;;;;;;;;;5043190;28;19928;-84
2021/09/03 06:53:30;;;;;;;;;;;;;;;;;;5041907;28;19984;-84
2021/09/03 06:56:14;;;;;;;;;;;;;;;;;;5038352;28;19921;-82
2021/09/03 06:59:00;;;;;;;;;;;;;;;;;;5043441;28;19920;-84
2021/09/03 07:01:44;;;;;;;;;;;;;;;;;;5041605;28;19924;-84
2021/09/03 07:04:28;;;;;;;;;;;;;;;;;;5041117;28;19932;-84
2021/09/03 07:07:12;;;;;;;;;;;;;;;;;;5044396;28;19920;-83
2021/09/03 07:09:56;;;;;;;;;;;;;;;;;;5040744;28;19923;-84
2021/09/03 07:12:41;;;;;;;;;;;;;;;;;;5040604;28;19981;-84
2021/09/03 07:15:25;;;;;;;;;;;;;;;;;;5045036;28;19924;-84
2021/09/03 07:18:09;;;;;;;;;;;;;;;;;;5044555;28;19924;-84
2021/09/03 07:20:54;;;;;;;;;;;;;;;;;;5042501;28;19924;-83
2021/09/03 07:23:38;;;;;;;;;;;;;;;;;;5038868;28;19920;-83
2021/09/03 07:26:22;;;;;;;;;;;;;;;;;;5043115;28;19928;-84
2021/09/03 07:29:06;;;;;;;;;;;;;;;;;;5042493;28;19961;-83
2021/09/03 07:31:50;;;;;;;;;;;;;;;;;;5041068;28;19920;-83
2021/09/03 07:34:35;;;;;;;;;;;;;;;;;;5042809;28;19920;-84
2021/09/03 07:37:19;;;;;;;;;;;;;;;;;;5043048;28;19920;-83
2021/09/03 07:40:03;;;;;;;;;;;;;;;;;;5039897;28;19940;-84
2021/09/03 07:42:47;;;;;;;;;;;;;;;;;;5048763;28;19928;-83
2021/09/03 07:45:31;;;;;;;;;;;;;;;;;;5048150;28;19920;-83
2021/09/03 07:48:16;;;;;;;;;;;;;;;;;;5042854;28;19920;-83
2021/09/03 07:51:00;;;;;;;;;;;;;;;;;;5050330;28;19924;-83
2021/09/03 07:53:44;;;;;;;;;;;;;;;;;;5048534;28;19920;-83
2021/09/03 07:56:29;;;;;;;;;;;;;;;;;;5046338;28;19928;-82
2021/09/03 07:59:13;;;;;;;;;;;;;;;;;;5047879;28;19920;-82
2021/09/03 08:01:57;;;;;;;;;;;;;;;;;;5048277;28;19924;-82
2021/09/03 08:04:41;;;;;;;;;;;;;;;;;;5050836;28;19920;-82
2021/09/03 08:07:28;;;;;;;;;;;;;;;;;;5049225;28;19920;-82
2021/09/03 08:10:12;;;;;;;;;;;;;;;;;;5045610;28;19924;-82
2021/09/03 08:12:56;;;;;;;;;;;;;;;;;;5049072;28;19920;-83
2021/09/03 08:15:41;;;;;;;;;;;;;;;;;;5048190;28;20487;-83
2021/09/03 08:18:26;;;;;;;;;;;;;;;;;;5052822;28;19924;-82
2021/09/03 08:21:11;;;;;;;;;;;;;;;;;;5050874;28;19924;-83
2021/09/03 08:23:55;;;;;;;;;;;;;;;;;;5049771;28;19920;-83
2021/09/03 08:26:39;;;;;;;;;;;;;;;;;;5050598;28;20004;-81
2021/09/03 08:29:23;;;;;;;;;;;;;;;;;;5051478;28;19924;-82
2021/09/03 08:32:08;;;;;;;;;;;;;;;;;;5049562;28;19928;-83
2021/09/03 08:34:52;;;;;;;;;;;;;;;;;;5053329;28;19920;-83
2021/09/03 08:37:36;;;;;;;;;;;;;;;;;;5051730;28;19919;-83
2021/09/03 08:40:21;;;;;;;;;;;;;;;;;;5048811;28;19924;-83
2021/09/03 08:43:05;;;;;;;;;;;;;;;;;;5053299;28;19920;-82
2021/09/03 08:45:50;;;;;;;;;;;;;;;;;;5049124;28;19924;-82
2021/09/03 08:48:34;;;;;;;;;;;;;;;;;;5047308;28;19920;-82
2021/09/03 08:51:18;;;;;;;;;;;;;;;;;;5048893;28;19920;-82
2021/09/03 08:54:02;;;;;;;;;;;;;;;;;;5044790;28;20038;-82
2021/09/03 08:56:46;;;;;;;;;;;;;;;;;;5042025;28;19920;-82
2021/09/03 08:59:31;;;;;;;;;;;;;;;;;;5044099;28;20428;-81
2021/09/03 09:02:15;;;;;;;;;;;;;;;;;;5052214;28;19924;-84
2021/09/03 09:04:59;;;;;;;;;;;;;;;;;;5048774;28;19928;-83
2021/09/03 09:07:43;;;;;;;;;;;;;;;;;;5049104;28;19920;-83
2021/09/03 09:10:28;;;;;;;;;;;;;;;;;;5053484;28;19932;-83
2021/09/03 09:13:12;;;;;;;;;;;;;;;;;;5051041;28;19920;-83
2021/09/03 09:15:56;;;;;;;;;;;;;;;;;;5043316;28;20396;-82
2021/09/03 09:18:40;;;;;;;;;;;;;;;;;;5048096;28;19920;-82
2021/09/03 09:21:26;;;;;;;;;;;;;;;;;;5046389;28;19924;-82
2021/09/03 09:24:10;;;;;;;;;;;;;;;;;;5043664;28;20408;-82
2021/09/03 09:26:55;;;;;;;;;;;;;;;;;;5047843;28;19928;-82
2021/09/03 09:29:39;;;;;;;;;;;;;;;;;;5041737;28;20108;-81
2021/09/03 09:32:23;;;;;;;;;;;;;;;;;;5042038;28;19928;-81
2021/09/03 09:35:07;;;;;;;;;;;;;;;;;;5045251;28;19920;-82
2021/09/03 09:37:51;;;;;;;;;;;;;;;;;;5043951;28;19936;-82
2021/09/03 09:40:36;;;;;;;;;;;;;;;;;;5041080;28;19924;-82
2021/09/03 09:43:20;;;;;;;;;;;;;;;;;;5044881;28;19960;-80
2021/09/03 09:46:04;;;;;;;;;;;;;;;;;;5043482;28;20297;-80
2021/09/03 09:48:48;;;;;;;;;;;;;;;;;;5044544;28;19928;-84
2021/09/03 09:51:33;;;;;;;;;;;;;;;;;;5048275;28;19928;-84
2021/09/03 09:54:17;;;;;;;;;;;;;;;;;;5044387;28;20412;-83
2021/09/03 09:57:02;;;;;;;;;;;;;;;;;;5048167;28;19920;-80
2021/09/03 09:59:46;;;;;;;;;;;;;;;;;;5045769;28;20512;-79
2021/09/03 10:02:30;;;;;;;;;;;;;;;;;;5045717;28;19921;-81
2021/09/03 10:05:15;;;;;;;;;;;;;;;;;;5036333;28;19992;-81
2021/09/03 10:08:00;;;;;;;;;;;;;;;;;;5034513;28;19948;-81
2021/09/03 10:10:44;;;;;;;;;;;;;;;;;;5041377;28;19928;-80
2021/09/03 10:13:28;;;;;;;;;;;;;;;;;;5038938;28;19929;-80
2021/09/03 10:16:13;;;;;;;;;;;;;;;;;;5037038;28;19921;-81
2021/09/03 10:18:57;;;;;;;;;;;;;;;;;;5046465;28;19920;-81
2021/09/03 10:21:41;;;;;;;;;;;;;;;;;;5044803;28;19924;-82
2021/09/03 10:24:26;;;;;;;;;;;;;;;;;;5044048;28;19921;-81
2021/09/03 10:27:10;;;;;;;;;;;;;;;;;;5043362;28;19936;-81
2021/09/03 10:29:54;;;;;;;;;;;;;;;;;;5039981;28;19919;-81
2021/09/03 10:32:40;;;;;;;;;;;;;;;;;;5046119;28;19924;-84
2021/09/03 10:35:24;;;;;;;;;;;;;;;;;;5044558;28;19923;-87
2021/09/03 10:38:09;;;;;;;;;;;;;;;;;;5041979;28;20341;-83
2021/09/03 10:40:53;;;;;;;;;;;;;;;;;;5040733;28;19928;-84
2021/09/03 10:43:37;;;;;;;;;;;;;;;;;;5040066;28;20405;-83
2021/09/03 10:46:21;;;;;;;;;;;;;;;;;;5045003;28;19924;-83
2021/09/03 10:49:06;;;;;;;;;;;;;;;;;;5038568;28;19928;-83
2021/09/03 10:51:50;;;;;;;;;;;;;;;;;;5037627;28;19924;-82
2021/09/03 10:54:34;;;;;;;;;;;;;;;;;;5043524;28;19936;-82
2021/09/03 10:57:20;;;;;;;;;;;;;;;;;;5039116;28;19924;-82
2021/09/03 11:00:04;;;;;;;;;;;;;;;;;;5036977;28;19928;-83
2021/09/03 11:02:48;;;;;;;;;;;;;;;;;;5042867;28;20289;-82
2021/09/03 11:05:32;;;;;;;;;;;;;;;;;;5039480;28;19920;-82
2021/09/03 11:08:17;;;;;;;;;;;;;;;;;;5038408;28;19933;-82
2021/09/03 11:11:01;;;;;;;;;;;;;;;;;;5041743;28;19940;-82
2021/09/03 11:13:47;;;;;;;;;;;;;;;;;;5037096;28;20302;-81
2021/09/03 11:16:31;;;;;;;;;;;;;;;;;;5039354;28;19920;-81
2021/09/03 11:19:16;;;;;;;;;;;;;;;;;;5041049;28;19928;-82
2021/09/03 11:22:00;;;;;;;;;;;;;;;;;;5041651;28;20440;-80
2021/09/03 11:24:44;;;;;;;;;;;;;;;;;;5039227;28;19921;-80
2021/09/03 11:27:30;;;;;;;;;;;;;;;;;;5036516;28;19928;-82
2021/09/03 11:30:14;;;;;;;;;;;;;;;;;;5036252;28;19988;-82
2021/09/03 11:32:58;;;;;;;;;;;;;;;;;;5038155;28;19921;-82
2021/09/03 11:35:43;;;;;;;;;;;;;;;;;;5034796;28;19940;-83
2021/09/03 11:38:27;;;;;;;;;;;;;;;;;;5040622;28;20689;-82
2021/09/03 11:41:12;;;;;;;;;;;;;;;;;;5038890;28;19924;-82
2021/09/03 11:43:56;;;;;;;;;;;;;;;;;;5035552;28;19920;-82
2021/09/03 11:46:40;;;;;;;;;;;;;;;;;;5042092;28;19994;-84
2021/09/03 11:49:24;;;;;;;;;;;;;;;;;;5038275;28;20392;-83
2021/09/03 11:52:09;;;;;;;;;;;;;;;;;;5037241;28;19920;-83
2021/09/03 11:54:53;;;;;;;;;;;;;;;;;;5040989;28;19921;-83
2021/09/03 11:57:38;;;;;;;;;;;;;;;;;;5039374;28;19921;-80
2021/09/03 12:00:22;;;;;;;;;;;;;;;;;;5035759;28;20325;-83
2021/09/03 12:03:06;;;;;;;;;;;;;;;;;;5041287;28;19936;-83
2021/09/03 12:05:50;;;;;;;;;;;;;;;;;;5038902;28;19925;-83
2021/09/03 12:08:37;;;;;;;;;;;;;;;;;;5039172;28;20408;-84
2021/09/03 12:11:23;;;;;;;;;;;;;;;;;;5042895;28;19921;-81
2021/09/03 12:14:08;;;;;;;;;;;;;;;;;;5040645;28;19985;-84
2021/09/03 12:16:52;;;;;;;;;;;;;;;;;;5040323;28;19932;-82
2021/09/03 12:19:36;;;;;;;;;;;;;;;;;;5038512;28;19919;-82
2021/09/03 12:22:20;;;;;;;;;;;;;;;;;;5042456;28;19928;-81
2021/09/03 12:25:05;;;;;;;;;;;;;;;;;;5039671;28;19920;-83
2021/09/03 12:27:49;;;;;;;;;;;;;;;;;;5041593;28;19920;-82
2021/09/03 12:30:33;;;;;;;;;;;;;;;;;;5039296;28;19928;-82
2021/09/03 12:33:18;;;;;;;;;;;;;;;;;;5036016;28;19920;-80
2021/09/03 12:36:03;;;;;;;;;;;;;;;;;;5038446;28;19924;-80
2021/09/03 12:38:48;;;;;;;;;;;;;;;;;;5040482;28;19936;-80
2021/09/03 12:41:32;;;;;;;;;;;;;;;;;;5041014;28;19924;-80
2021/09/03 12:44:17;;;;;;;;;;;;;;;;;;5040391;28;19924;-80
2021/09/03 12:47:01;;;;;;;;;;;;;;;;;;5044352;28;19920;-80
2021/09/03 12:49:45;;;;;;;;;;;;;;;;;;5040651;28;19920;-80
2021/09/03 12:52:29;;;;;;;;;;;;;;;;;;5040317;28;19936;-80
2021/09/03 12:55:13;;;;;;;;;;;;;;;;;;5045169;28;19920;-81
2021/09/03 12:57:57;;;;;;;;;;;;;;;;;;5042637;28;19929;-79
2021/09/03 13:00:42;;;;;;;;;;;;;;;;;;5039943;28;19924;-80
2021/09/03 13:03:26;;;;;;;;;;;;;;;;;;5042777;28;19920;-80
2021/09/03 13:06:10;;;;;;;;;;;;;;;;;;5042888;28;19924;-80
2021/09/03 13:08:54;;;;;;;;;;;;;;;;;;5041202;28;19925;-80
2021/09/03 13:11:38;;;;;;;;;;;;;;;;;;5045189;28;19994;-81
2021/09/03 13:14:23;;;;;;;;;;;;;;;;;;5043809;28;19920;-81
2021/09/03 13:17:07;;;;;;;;;;;;;;;;;;5041127;28;19936;-80
2021/09/03 13:19:52;;;;;;;;;;;;;;;;;;5040872;28;19928;-80
2021/09/03 13:22:36;;;;;;;;;;;;;;;;;;5043952;28;19925;-80
2021/09/03 13:25:20;;;;;;;;;;;;;;;;;;5040633;28;19925;-81
2021/09/03 13:28:04;;;;;;;;;;;;;;;;;;5036866;28;19925;-81
2021/09/03 13:30:49;;;;;;;;;;;;;;;;;;5041320;28;19936;-81
2021/09/03 13:33:33;;;;;;;;;;;;;;;;;;5040306;28;20428;-80
2021/09/03 13:36:17;;;;;;;;;;;;;;;;;;5039219;28;19979;-80
2021/09/03 13:39:01;;;;;;;;;;;;;;;;;;5042081;28;19920;-80
2021/09/03 13:41:47;;;;;;;;;;;;;;;;;;5040503;28;19924;-80
2021/09/03 13:44:31;;;;;;;;;;;;;;;;;;5044608;28;19924;-80
2021/09/03 13:47:16;;;;;;;;;;;;;;;;;;5042527;28;20305;-80
2021/09/03 13:50:00;;;;;;;;;;;;;;;;;;5039385;28;19928;-80
2021/09/03 13:52:44;;;;;;;;;;;;;;;;;;5043651;28;19920;-80
2021/09/03 13:55:28;;;;;;;;;;;;;;;;;;5042301;28;20396;-80
2021/09/03 13:58:15;;;;;;;;;;;;;;;;;;5039235;28;19924;-81
2021/09/03 14:00:59;;;;;;;;;;;;;;;;;;5038694;28;19928;-81
2021/09/03 14:03:43;;;;;;;;;;;;;;;;;;5039781;28;19950;-81
2021/09/03 14:06:27;;;;;;;;;;;;;;;;;;5040971;28;19925;-81
2021/09/03 14:09:12;;;;;;;;;;;;;;;;;;5034079;28;19924;-80
2021/09/03 14:11:57;;;;;;;;;;;;;;;;;;5042481;28;19920;-80
2021/09/03 14:14:41;;;;;;;;;;;;;;;;;;5040701;28;19924;-80
2021/09/03 14:17:25;;;;;;;;;;;;;;;;;;5039067;28;19936;-80
2021/09/03 14:20:09;;;;;;;;;;;;;;;;;;5038788;28;19919;-79
2021/09/03 14:22:54;;;;;;;;;;;;;;;;;;5039347;28;19924;-79
2021/09/03 14:25:38;;;;;;;;;;;;;;;;;;5042889;28;20416;-79
2021/09/03 14:28:23;;;;;;;;;;;;;;;;;;5040680;28;19920;-80
2021/09/03 14:31:07;;;;;;;;;;;;;;;;;;5037245;28;19920;-79
2021/09/03 14:33:51;;;;;;;;;;;;;;;;;;5042559;28;19924;-80
2021/09/03 14:36:35;;;;;;;;;;;;;;;;;;5042431;28;19920;-80
2021/09/03 14:39:20;;;;;;;;;;;;;;;;;;5038424;28;19920;-80
2021/09/03 14:42:04;;;;;;;;;;;;;;;;;;5040292;28;19932;-80
2021/09/03 14:44:48;;;;;;;;;;;;;;;;;;5039697;28;19921;-80
2021/09/03 14:47:32;;;;;;;;;;;;;;;;;;5037995;28;19935;-80
2021/09/03 14:50:17;;;;;;;;;;;;;;;;;;5037925;28;19924;-80
2021/09/03 14:53:02;;;;;;;;;;;;;;;;;;5038766;28;19936;-80
2021/09/03 14:55:47;;;;;;;;;;;;;;;;;;5037711;28;19928;-80
2021/09/03 14:58:31;;;;;;;;;;;;;;;;;;5036612;28;19928;-80
2021/09/03 15:01:15;;;;;;;;;;;;;;;;;;5040505;28;20444;-80
2021/09/03 15:03:59;;;;;;;;;;;;;;;;;;5038564;28;19963;-80
2021/09/03 15:06:43;;;;;;;;;;;;;;;;;;5036080;28;19920;-80
2021/09/03 15:09:28;;;;;;;;;;;;;;;;;;5038031;28;19971;-80
2021/09/03 15:12:12;;;;;;;;;;;;;;;;;;5040468;28;19928;-80
2021/09/03 15:14:56;;;;;;;;;;;;;;;;;;5039015;28;19920;-79
2021/09/03 15:17:41;;;;;;;;;;;;;;;;;;5041999;28;19924;-80
2021/09/03 15:20:25;;;;;;;;;;;;;;;;;;5038479;28;19921;-80
2021/09/03 15:23:09;;;;;;;;;;;;;;;;;;5036698;28;19920;-79
2021/09/03 15:25:53;;;;;;;;;;;;;;;;;;5041041;28;19920;-79
2021/09/03 15:28:37;;;;;;;;;;;;;;;;;;5040184;28;19927;-80
2021/09/03 15:31:22;;;;;;;;;;;;;;;;;;5038349;28;19928;-80
2021/09/03 15:34:06;;;;;;;;;;;;;;;;;;5041407;28;19920;-80
2021/09/03 15:36:50;;;;;;;;;;;;;;;;;;5041114;28;20125;-81
2021/09/03 15:39:34;;;;;;;;;;;;;;;;;;5038205;28;20306;-79
2021/09/03 15:42:18;;;;;;;;;;;;;;;;;;5036909;28;19939;-79
2021/09/03 15:45:03;;;;;;;;;;;;;;;;;;5040969;28;20292;-79
2021/09/03 15:47:47;;;;;;;;;;;;;;;;;;5039479;28;20032;-80
2021/09/03 15:50:31;;;;;;;;;;;;;;;;;;5037454;28;20305;-79
2021/09/03 15:53:15;;;;;;;;;;;;;;;;;;5040114;28;19924;-79
2021/09/03 15:55:59;;;;;;;;;;;;;;;;;;5039122;28;19921;-80
2021/09/03 15:58:44;;;;;;;;;;;;;;;;;;5036820;28;19936;-79
2021/09/03 16:01:28;;;;;;;;;;;;;;;;;;5037224;28;19924;-80
2021/09/03 16:04:13;;;;;;;;;;;;;;;;;;5039196;28;19928;-79
2021/09/03 16:06:57;;;;;;;;;;;;;;;;;;5033080;28;20416;-79
2021/09/03 16:09:41;;;;;;;;;;;;;;;;;;5039458;28;19925;-79
2021/09/03 16:12:26;;;;;;;;;;;;;;;;;;5039430;28;19920;-79
2021/09/03 16:15:10;;;;;;;;;;;;;;;;;;5037111;28;20455;-79
2021/09/03 16:17:54;;;;;;;;;;;;;;;;;;5041309;28;19952;-79
2021/09/03 16:20:42;;;;;;;;;;;;;;;;;;5041718;28;20551;-78
2021/09/03 16:23:26;;;;;;;;;;;;;;;;;;5043458;28;19981;-79
2021/09/03 16:26:10;;;;;;;;;;;;;;;;;;5050326;28;19928;-84
2021/09/03 16:28:54;;;;;;;;;;;;;;;;;;5049666;28;19928;-85
2021/09/03 16:31:39;;;;;;;;;;;;;;;;;;5056795;28;19927;-85
2021/09/03 16:34:23;;;;;;;;;;;;;;;;;;5058884;28;19919;-78
2021/09/03 16:37:07;;;;;;;;;;;;;;;;;;5031453;28;20329;-78
2021/09/03 16:39:51;;;;;;;;;;;;;;;;;;5038833;28;19920;-78
2021/09/03 16:42:36;;;;;;;;;;;;;;;;;;5040235;28;19924;-79
2021/09/03 16:45:20;;;;;;;;;;;;;;;;;;5041107;28;19925;-78
2021/09/03 16:48:04;;;;;;;;;;;;;;;;;;5040049;28;19924;-79
2021/09/03 16:50:48;;;;;;;;;;;;;;;;;;5036176;28;19924;-79
2021/09/03 16:53:33;;;;;;;;;;;;;;;;;;5043312;28;19925;-79
2021/09/03 16:56:17;;;;;;;;;;;;;;;;;;5035723;28;20301;-79
2021/09/03 16:59:01;;;;;;;;;;;;;;;;;;5037119;28;20428;-79
2021/09/03 17:01:45;;;;;;;;;;;;;;;;;;5034388;28;19944;-79
2021/09/03 17:04:29;;;;;;;;;;;;;;;;;;5033207;28;19924;-79
2021/09/03 17:07:14;;;;;;;;;;;;;;;;;;5036819;28;19940;-78
2021/09/03 17:09:58;;;;;;;;;;;;;;;;;;5033036;28;19928;-79
2021/09/03 17:12:42;;;;;;;;;;;;;;;;;;5036787;28;20000;-82
2021/09/03 17:15:26;;;;;;;;;;;;;;;;;;5032185;28;19924;-78
2021/09/03 17:18:11;;;;;;;;;;;;;;;;;;5034145;28;19932;-78
2021/09/03 17:20:55;;;;;;;;;;;;;;;;;;5035977;28;19928;-78
2021/09/03 17:23:39;;;;;;;;;;;;;;;;;;5035316;28;19924;-80
2021/09/03 17:26:23;;;;;;;;;;;;;;;;;;5035757;28;19920;-79
2021/09/03 17:29:07;;;;;;;;;;;;;;;;;;5042169;28;19923;-80
2021/09/03 17:31:52;;;;;;;;;;;;;;;;;;5043177;28;19924;-79
2021/09/03 17:34:37;;;;;;;;;;;;;;;;;;5046190;28;19924;-79
2021/09/03 17:37:21;;;;;;;;;;;;;;;;;;5038534;28;19924;-78
2021/09/03 17:40:06;;;;;;;;;;;;;;;;;;5021237;28;19924;-79
2021/09/03 17:42:50;;;;;;;;;;;;;;;;;;5037726;28;19928;-80
2021/09/03 17:45:35;;;;;;;;;;;;;;;;;;5026005;28;19924;-80
2021/09/03 17:48:23;;;;;;;;;;;;;;;;;;5042915;28;19924;-80
2021/09/03 17:51:07;;;;;;;;;;;;;;;;;;5039847;28;19980;-80
2021/09/03 17:53:51;;;;;;;;;;;;;;;;;;5060873;28;19923;-80
2021/09/03 17:56:37;;;;;;;;;;;;;;;;;;5041517;28;20432;-81
2021/09/03 17:59:21;;;;;;;;;;;;;;;;;;5041070;28;19940;-80
2021/09/03 18:02:05;;;;;;;;;;;;;;;;;;5053437;28;19936;-79
2021/09/03 18:04:50;;;;;;;;;;;;;;;;;;5042357;28;20467;-80
2021/09/03 18:07:34;;;;;;;;;;;;;;;;;;5036063;28;19920;-79
2021/09/03 18:10:18;;;;;;;;;;;;;;;;;;5034367;28;19924;-79
2021/09/03 18:13:03;;;;;;;;;;;;;;;;;;5040820;28;19921;-79
2021/09/03 18:15:47;;;;;;;;;;;;;;;;;;5039990;28;19924;-79
2021/09/03 18:18:32;;;;;;;;;;;;;;;;;;5041704;28;19920;-79
2021/09/03 18:21:16;;;;;;;;;;;;;;;;;;5042035;28;19928;-79
2021/09/03 18:24:00;;;;;;;;;;;;;;;;;;5038207;28;19924;-79
2021/09/03 18:26:45;;;;;;;;;;;;;;;;;;5038025;28;19921;-79
2021/09/03 18:29:29;;;;;;;;;;;;;;;;;;5039622;28;19920;-79
2021/09/03 18:32:13;;;;;;;;;;;;;;;;;;5043035;28;19936;-79
2021/09/03 18:34:57;;;;;;;;;;;;;;;;;;5034607;28;19928;-80
2021/09/03 18:37:41;;;;;;;;;;;;;;;;;;5039293;28;19928;-79
2021/09/03 18:40:25;;;;;;;;;;;;;;;;;;5037174;28;19920;-79
2021/09/03 18:43:10;;;;;;;;;;;;;;;;;;5036645;28;19924;-79